createdAt,value
2022-09-28T00:06:13.423Z,73553.25
2022-09-28T00:16:18.022Z,73559.31
2022-09-28T00:26:20.144Z,73557.31
2022-09-28T00:36:27.217Z,73571.47
2022-09-28T00:46:33.961Z,73605.84
2022-09-28T00:56:41.729Z,73650.34
2022-09-28T01:06:53.598Z,73666.53
2022-09-28T01:17:13.787Z,73682.72
2022-09-28T01:27:34.410Z,73680.69
2022-09-28T01:37:57.452Z,73682.72
2022-09-28T01:48:05.492Z,73696.88
2022-09-28T01:58:19.453Z,73700.91
2022-09-28T02:08:28.642Z,73694.84
2022-09-28T02:18:33.547Z,73706.97
2022-09-28T02:28:41.144Z,73698.91
2022-09-28T02:38:43.330Z,73686.75
2022-09-28T02:49:20.880Z,73698.91
2022-09-28T02:59:36.089Z,73706.97
2022-09-28T03:09:50.424Z,73692.81
2022-09-28T03:19:54.476Z,73682.72
2022-09-28T03:30:01.352Z,73678.66
2022-09-28T03:40:05.666Z,73674.63
2022-09-28T03:50:13.945Z,73662.47
2022-09-28T04:00:21.793Z,73666.53
2022-09-28T04:10:29.621Z,73666.53
2022-09-28T04:20:39.334Z,73684.72
2022-09-28T04:30:48.762Z,73706.97
2022-09-28T04:40:52.171Z,73702.94
2022-09-28T04:50:56.155Z,73727.22
2022-09-28T05:01:02.435Z,73747.44
2022-09-28T05:11:49.929Z,73741.38
2022-09-28T05:21:56.158Z,73751.50
2022-09-28T05:31:58.485Z,73751.50
2022-09-28T05:42:14.271Z,73759.56
2022-09-28T05:52:20.646Z,73773.75
2022-09-28T06:02:25.438Z,73773.75
2022-09-28T06:12:30.938Z,73773.75
2022-09-28T06:22:40.325Z,73765.66
2022-09-28T06:32:43.890Z,73743.41
2022-09-28T06:42:55.496Z,73751.50
2022-09-28T06:53:18.845Z,73690.81
2022-09-28T07:03:27.298Z,73654.41
2022-09-28T07:13:50.875Z,73658.44
2022-09-28T07:23:55.959Z,73648.31
2022-09-28T07:33:58.855Z,73642.25
2022-09-28T07:44:09.227Z,73603.81
2022-09-28T07:54:18.092Z,73559.31
2022-09-28T08:04:30.338Z,73399.53
2022-09-28T08:14:37.827Z,73444.03
2022-09-28T08:24:59.456Z,73464.25
2022-09-28T08:35:03.819Z,73456.16
2022-09-28T08:45:27.485Z,73393.47
2022-09-28T08:55:49.995Z,73342.91
2022-09-28T09:06:27.086Z,73383.34
2022-09-28T09:17:00.652Z,73395.50
2022-09-28T09:27:18.255Z,73365.16
2022-09-28T09:37:55.197Z,73304.47
2022-09-28T09:48:19.107Z,73302.44
2022-09-28T09:58:31.858Z,73351.00
2022-09-28T10:09:20.490Z,73385.38
2022-09-28T10:19:33.303Z,73375.25
2022-09-28T10:30:01.310Z,73308.53
2022-09-28T10:40:48.360Z,73326.72
2022-09-28T10:51:08.369Z,73294.34
2022-09-28T11:01:13.748Z,73338.84
2022-09-28T11:11:21.972Z,73397.50
2022-09-28T11:21:42.490Z,73375.25
2022-09-28T11:31:46.795Z,73338.84
2022-09-28T11:41:56.537Z,73351.00
2022-09-28T11:52:04.283Z,73351.00
2022-09-28T12:02:28.379Z,73344.91
2022-09-28T12:12:43.198Z,73310.53
2022-09-28T12:22:56.209Z,73300.44
2022-09-28T12:33:04.376Z,73284.25
2022-09-28T12:43:33.640Z,73270.09
2022-09-28T12:54:09.724Z,73294.34
2022-09-28T13:04:30.416Z,73334.81
2022-09-28T13:15:04.127Z,73383.34
2022-09-28T13:25:14.549Z,73494.59
2022-09-28T13:35:20.213Z,73474.38
2022-09-28T13:45:22.732Z,73448.06
2022-09-28T13:55:33.146Z,73413.69
2022-09-28T14:05:41.872Z,73387.41
2022-09-28T14:15:47.148Z,73379.31
2022-09-28T14:26:26.990Z,73407.63
2022-09-28T14:37:00.883Z,73415.72
2022-09-28T14:47:26.127Z,73405.59
2022-09-28T14:57:34.250Z,73399.53
2022-09-28T15:18:19.385Z,73399.53
2022-09-28T15:28:26.148Z,73407.63
2022-09-28T15:38:28.642Z,73403.56
2022-09-28T15:48:37.014Z,73405.59
2022-09-28T15:58:39.755Z,73411.66
2022-09-28T16:08:46.294Z,73421.78
2022-09-28T16:18:55.482Z,73419.75
2022-09-28T16:28:59.201Z,73433.91
2022-09-28T16:39:12.719Z,73466.28
2022-09-28T16:49:21.276Z,73484.47
2022-09-28T16:59:25.661Z,73500.66
2022-09-28T17:09:35.762Z,73500.66
2022-09-28T17:19:41.169Z,73502.69
2022-09-28T17:29:49.051Z,73504.72
2022-09-28T17:39:51.030Z,73506.72
2022-09-28T17:49:58.683Z,73533.03
2022-09-28T18:00:02.395Z,73569.44
2022-09-28T18:10:18.299Z,73617.97
2022-09-28T18:20:22.738Z,73670.56
2022-09-28T18:30:28.320Z,73731.25
2022-09-28T18:40:36.262Z,73763.63
2022-09-28T18:50:38.749Z,73812.16
2022-09-28T19:00:42.239Z,73848.59
2022-09-28T19:10:44.781Z,73876.91
2022-09-28T19:20:46.792Z,73887.03
2022-09-28T19:30:59.454Z,73893.09
2022-09-28T19:41:04.222Z,73893.09
2022-09-28T19:51:12.046Z,73925.44
2022-09-28T20:01:16.524Z,73923.44
2022-09-28T20:11:21.442Z,73909.28
2022-09-28T20:21:29.416Z,73925.44
2022-09-28T20:31:31.454Z,73929.50
2022-09-28T20:41:40.013Z,73931.53
2022-09-28T20:51:45.312Z,73927.47
2022-09-28T21:01:56.123Z,73945.69
2022-09-28T21:12:00.136Z,73941.63
2022-09-28T21:22:07.048Z,73941.63
2022-09-28T21:32:11.563Z,73927.47
2022-09-28T21:42:15.798Z,73917.34
2022-09-28T21:52:21.545Z,73937.59
2022-09-28T22:02:23.612Z,73951.75
2022-09-28T22:12:30.232Z,73969.97
2022-09-28T22:22:39.710Z,73988.16
2022-09-28T22:32:45.333Z,74004.34
2022-09-28T22:42:49.780Z,74006.38
2022-09-28T22:52:56.414Z,74022.56
2022-09-28T23:03:02.999Z,74024.56
2022-09-28T23:13:09.560Z,74026.59
2022-09-28T23:23:11.578Z,74067.06
2022-09-28T23:33:14.903Z,74083.25
2022-09-28T23:43:21.589Z,74111.56
2022-09-28T23:53:32.365Z,74109.53
